createdAt,value
2023-12-30T00:01:03.811Z,61.77
2023-12-30T00:03:30.996Z,55.43
2023-12-30T00:05:58.086Z,62.37
2023-12-30T00:08:25.217Z,61.50
2023-12-30T00:10:52.208Z,63.37
2023-12-30T00:13:19.282Z,58.53
2023-12-30T00:15:46.481Z,58.80
2023-12-30T00:18:13.697Z,63.43
2023-12-30T00:20:40.755Z,59.97
2023-12-30T00:23:08.452Z,59.70
2023-12-30T00:25:35.959Z,59.43
2023-12-30T00:28:03.830Z,64.97
2023-12-30T00:30:31.020Z,54.50
2023-12-30T00:32:58.149Z,58.67
2023-12-30T00:35:25.196Z,53.50
2023-12-30T00:37:54.478Z,59.47
2023-12-30T00:40:26.725Z,50.70
2023-12-30T00:42:54.773Z,61.73
2023-12-30T00:45:22.081Z,60.30
2023-12-30T00:47:49.213Z,58.43
2023-12-30T00:50:17.424Z,59.13
2023-12-30T00:52:44.435Z,59.40
2023-12-30T00:55:11.780Z,61.93
2023-12-30T00:57:38.942Z,63.27
2023-12-30T01:00:07.120Z,60.43
2023-12-30T01:02:34.244Z,61.97
2023-12-30T01:05:01.331Z,60.47
2023-12-30T01:07:28.482Z,57.70
2023-12-30T01:09:55.577Z,60.97
2023-12-30T01:12:22.730Z,61.47
2023-12-30T01:14:49.758Z,66.60
2023-12-30T01:17:16.865Z,67.90
2023-12-30T01:19:44.139Z,69.77
2023-12-30T01:22:12.373Z,58.67
2023-12-30T01:24:39.498Z,64.57
2023-12-30T01:27:06.595Z,61.03
2023-12-30T01:29:33.597Z,61.13
2023-12-30T01:32:00.556Z,60.47
2023-12-30T01:34:27.835Z,60.67
2023-12-30T01:36:55.984Z,61.50
2023-12-30T01:39:23.096Z,59.97
2023-12-30T01:41:52.873Z,63.57
2023-12-30T01:44:19.996Z,62.30
2023-12-30T01:46:47.547Z,57.40
2023-12-30T01:49:15.380Z,62.57
2023-12-30T01:51:42.653Z,56.93
2023-12-30T01:54:10.575Z,50.83
2023-12-30T01:56:37.726Z,49.47
2023-12-30T01:59:06.622Z,48.53
2023-12-30T02:01:34.597Z,52.37
2023-12-30T02:04:02.315Z,45.40
2023-12-30T02:06:29.372Z,50.03
2023-12-30T02:08:56.662Z,45.43
2023-12-30T02:11:23.779Z,50.47
2023-12-30T02:13:51.123Z,48.57
2023-12-30T02:16:18.282Z,51.47
2023-12-30T02:18:45.596Z,49.67
2023-12-30T02:21:12.836Z,52.50
2023-12-30T02:23:41.489Z,51.00
2023-12-30T02:26:11.651Z,47.70
2023-12-30T02:28:38.721Z,52.50
2023-12-30T02:31:05.961Z,47.63
2023-12-30T02:33:33.092Z,44.63
2023-12-30T02:36:00.175Z,47.87
2023-12-30T02:38:27.192Z,44.67
2023-12-30T02:40:54.169Z,47.93
2023-12-30T02:43:21.328Z,46.53
2023-12-30T02:45:48.593Z,51.63
2023-12-30T02:48:15.953Z,44.83
2023-12-30T02:50:43.127Z,50.83
2023-12-30T02:53:10.197Z,52.10
2023-12-30T02:55:37.199Z,58.47
2023-12-30T02:58:04.438Z,51.40
2023-12-30T03:00:31.475Z,48.43
2023-12-30T03:02:59.908Z,54.67
2023-12-30T03:05:29.355Z,52.57
2023-12-30T03:07:58.953Z,53.13
2023-12-30T03:10:26.295Z,54.50
2023-12-30T03:12:53.487Z,53.53
2023-12-30T03:15:21.773Z,56.00
2023-12-30T03:17:50.446Z,52.13
2023-12-30T03:20:17.525Z,51.93
2023-12-30T03:22:44.594Z,49.57
2023-12-30T03:25:12.239Z,52.60
2023-12-30T03:27:39.298Z,52.07
2023-12-30T03:30:07.332Z,52.37
2023-12-30T03:32:34.556Z,51.67
2023-12-30T03:35:01.768Z,50.27
2023-12-30T03:37:28.874Z,53.77
2023-12-30T03:39:56.187Z,57.53
2023-12-30T03:42:23.288Z,52.23
2023-12-30T03:44:50.373Z,56.10
2023-12-30T03:47:17.505Z,53.33
2023-12-30T03:49:44.713Z,49.80
2023-12-30T03:52:12.747Z,51.13
2023-12-30T03:54:39.784Z,49.57
2023-12-30T03:57:06.728Z,55.13
2023-12-30T03:59:33.897Z,50.37
2023-12-30T04:02:00.937Z,50.53
2023-12-30T04:04:29.728Z,53.07
2023-12-30T04:06:57.032Z,54.40
2023-12-30T04:09:25.145Z,52.60
2023-12-30T04:11:52.316Z,46.97
2023-12-30T04:14:19.488Z,48.63
2023-12-30T04:16:46.892Z,50.27
2023-12-30T04:19:14.186Z,55.63
2023-12-30T04:21:41.253Z,50.87
2023-12-30T04:24:08.702Z,59.10
2023-12-30T04:26:36.233Z,52.43
2023-12-30T04:29:03.285Z,48.37
2023-12-30T04:31:30.675Z,51.20
2023-12-30T04:33:57.851Z,53.27
2023-12-30T04:36:24.922Z,53.60
2023-12-30T04:38:52.848Z,48.50
2023-12-30T04:41:22.257Z,51.63
2023-12-30T04:43:49.565Z,52.50
2023-12-30T04:46:16.773Z,55.93
2023-12-30T04:48:43.993Z,54.47
2023-12-30T04:51:11.098Z,50.80
2023-12-30T04:53:39.468Z,49.87
2023-12-30T04:56:08.151Z,51.53
2023-12-30T04:58:35.586Z,56.33
2023-12-30T05:01:03.510Z,55.60
2023-12-30T05:03:30.687Z,54.87
2023-12-30T05:05:58.445Z,56.17
2023-12-30T05:08:25.582Z,53.57
2023-12-30T05:10:52.558Z,55.27
2023-12-30T05:13:19.788Z,54.37
2023-12-30T05:15:46.921Z,53.77
2023-12-30T05:18:14.313Z,51.10
2023-12-30T05:20:42.092Z,55.97
2023-12-30T05:23:09.570Z,54.40
2023-12-30T05:25:36.860Z,55.43
2023-12-30T05:28:04.175Z,59.13
2023-12-30T05:30:31.236Z,55.53
2023-12-30T05:32:58.293Z,52.53
2023-12-30T05:35:25.572Z,62.00
2023-12-30T05:37:52.622Z,52.63
2023-12-30T05:40:19.960Z,56.50
2023-12-30T05:42:47.019Z,57.40
2023-12-30T05:45:14.097Z,54.67
2023-12-30T05:47:41.067Z,52.83
2023-12-30T05:50:08.938Z,56.60
2023-12-30T05:52:36.012Z,54.90
2023-12-30T05:55:03.642Z,59.97
2023-12-30T05:57:32.539Z,52.10
2023-12-30T06:00:00.350Z,58.73
2023-12-30T06:02:27.446Z,59.00
2023-12-30T06:04:54.552Z,54.47
2023-12-30T06:07:21.697Z,56.43
2023-12-30T06:09:48.813Z,54.73
2023-12-30T06:12:15.933Z,52.80
2023-12-30T06:14:42.948Z,58.27
2023-12-30T06:17:10.022Z,49.57
2023-12-30T06:19:37.059Z,53.07
2023-12-30T06:22:04.213Z,53.40
2023-12-30T06:24:31.254Z,51.80
2023-12-30T06:26:58.331Z,50.33
2023-12-30T06:29:29.655Z,52.47
2023-12-30T06:31:58.704Z,52.90
2023-12-30T06:34:25.950Z,49.73
2023-12-30T06:36:53.005Z,46.60
2023-12-30T06:39:21.370Z,52.07
2023-12-30T06:41:48.468Z,49.20
2023-12-30T06:44:15.712Z,55.77
2023-12-30T06:46:42.811Z,56.07
2023-12-30T06:49:10.317Z,53.73
2023-12-30T06:51:37.592Z,59.83
2023-12-30T06:54:04.749Z,56.87
2023-12-30T06:56:31.831Z,55.03
2023-12-30T06:58:58.942Z,53.40
2023-12-30T07:01:26.593Z,52.77
2023-12-30T07:03:54.207Z,52.50
2023-12-30T07:06:21.757Z,55.70
2023-12-30T07:08:48.912Z,48.40
2023-12-30T07:11:15.948Z,57.90
2023-12-30T07:13:42.957Z,53.13
2023-12-30T07:16:10.082Z,51.07
2023-12-30T07:18:37.147Z,50.07
2023-12-30T07:21:04.418Z,53.33
2023-12-30T07:23:31.429Z,51.30
2023-12-30T07:25:58.554Z,54.60
2023-12-30T07:28:25.621Z,59.27
2023-12-30T07:30:52.771Z,57.87
2023-12-30T07:33:20.050Z,54.67
2023-12-30T07:35:47.618Z,61.47
2023-12-30T07:38:14.844Z,60.77
2023-12-30T07:40:41.972Z,57.13
2023-12-30T07:43:09.741Z,58.13
2023-12-30T07:45:36.879Z,58.40
2023-12-30T07:48:04.277Z,58.53
2023-12-30T07:50:31.296Z,57.90
2023-12-30T07:52:58.293Z,53.90
2023-12-30T07:55:25.780Z,54.97
2023-12-30T07:57:52.965Z,56.17
2023-12-30T08:00:20.123Z,55.57
2023-12-30T08:02:47.295Z,63.33
2023-12-30T08:05:14.493Z,62.57
2023-12-30T08:07:41.603Z,60.40
2023-12-30T08:10:09.139Z,53.17
2023-12-30T08:12:38.047Z,61.97
2023-12-30T08:15:05.820Z,68.20
2023-12-30T08:17:33.224Z,56.53
2023-12-30T08:20:00.396Z,59.40
2023-12-30T08:22:27.482Z,58.37
2023-12-30T08:24:55.247Z,60.23
2023-12-30T08:27:22.506Z,58.03
2023-12-30T08:29:49.945Z,59.60
2023-12-30T08:32:17.323Z,58.67
2023-12-30T08:34:44.402Z,63.50
2023-12-30T08:37:11.619Z,54.30
2023-12-30T08:39:39.113Z,70.07
2023-12-30T08:42:07.876Z,56.37
2023-12-30T08:44:39.096Z,59.87
2023-12-30T08:47:07.141Z,61.13
2023-12-30T08:49:34.510Z,61.20
2023-12-30T08:52:01.699Z,61.03
2023-12-30T08:54:29.196Z,68.13
2023-12-30T08:56:56.330Z,58.43
2023-12-30T08:59:25.791Z,60.97
2023-12-30T09:01:53.348Z,60.23
2023-12-30T09:04:20.794Z,59.30
2023-12-30T09:06:48.079Z,59.63
2023-12-30T09:09:15.114Z,62.30
2023-12-30T09:11:44.251Z,60.13
2023-12-30T09:14:12.039Z,62.47
2023-12-30T09:16:39.146Z,61.97
2023-12-30T09:19:06.510Z,62.13
2023-12-30T09:21:33.687Z,59.90
2023-12-30T09:24:00.691Z,56.47
2023-12-30T09:26:27.780Z,59.70
2023-12-30T09:28:54.808Z,66.53
2023-12-30T09:31:22.038Z,62.10
2023-12-30T09:33:50.403Z,63.97
2023-12-30T09:36:18.848Z,57.73
2023-12-30T09:38:45.988Z,63.03
2023-12-30T09:41:14.705Z,57.23
2023-12-30T09:43:43.329Z,60.17
2023-12-30T09:46:10.857Z,66.07
2023-12-30T09:48:40.764Z,56.53
2023-12-30T09:51:08.374Z,65.43
2023-12-30T09:53:35.471Z,60.67
2023-12-30T09:56:03.936Z,59.65
2023-12-30T09:58:32.977Z,59.53
2023-12-30T10:01:00.172Z,59.70
2023-12-30T10:03:29.794Z,56.07
2023-12-30T10:06:00.916Z,54.50
2023-12-30T10:08:29.836Z,53.83
2023-12-30T10:10:58.575Z,57.87
2023-12-30T10:13:28.782Z,59.97
2023-12-30T10:16:04.332Z,63.90
2023-12-30T10:18:39.055Z,56.90
2023-12-30T10:21:08.135Z,57.07
2023-12-30T10:23:36.174Z,62.27
2023-12-30T10:26:04.871Z,51.53
2023-12-30T10:28:32.069Z,53.93
2023-12-30T10:31:03.579Z,57.43
2023-12-30T10:33:31.701Z,54.53
2023-12-30T10:35:58.881Z,57.57
2023-12-30T10:38:27.453Z,58.83
2023-12-30T10:40:55.690Z,54.33
2023-12-30T10:43:23.221Z,55.90
2023-12-30T10:45:59.331Z,55.30
2023-12-30T10:48:33.172Z,55.87
2023-12-30T10:51:01.586Z,63.30
2023-12-30T10:53:32.583Z,64.93
2023-12-30T10:56:04.901Z,60.27
2023-12-30T10:58:38.104Z,65.20
2023-12-30T11:01:06.401Z,72.70
2023-12-30T11:03:35.986Z,70.93
2023-12-30T11:06:25.137Z,69.87
2023-12-30T11:09:00.330Z,62.77
2023-12-30T11:11:27.375Z,67.00
2023-12-30T11:13:58.454Z,61.00
2023-12-30T11:16:25.589Z,63.23
2023-12-30T11:19:02.671Z,59.63
2023-12-30T11:21:47.922Z,58.73
2023-12-30T11:24:16.489Z,66.17
2023-12-30T11:26:46.846Z,63.03
2023-12-30T11:29:18.324Z,67.13
2023-12-30T11:31:47.375Z,69.53
2023-12-30T11:34:19.116Z,62.70
2023-12-30T11:36:48.357Z,60.77
2023-12-30T11:39:29.421Z,63.60
2023-12-30T11:41:59.562Z,63.77
2023-12-30T11:44:28.667Z,58.90
2023-12-30T11:46:55.822Z,63.93
2023-12-30T11:49:24.530Z,67.00
2023-12-30T11:51:52.742Z,63.83
2023-12-30T11:54:19.782Z,66.97
2023-12-30T11:56:47.076Z,71.80
2023-12-30T11:59:14.440Z,70.87
2023-12-30T12:01:43.215Z,71.10
2023-12-30T12:04:11.283Z,69.07
2023-12-30T12:06:38.441Z,69.80
2023-12-30T12:09:07.338Z,67.10
2023-12-30T12:11:34.415Z,67.93
2023-12-30T12:14:03.034Z,62.43
2023-12-30T12:16:33.195Z,58.67
2023-12-30T12:19:04.851Z,62.87
2023-12-30T12:21:32.218Z,61.23
2023-12-30T12:23:59.283Z,64.93
2023-12-30T12:26:29.136Z,65.57
2023-12-30T12:28:59.210Z,67.47
2023-12-30T12:31:31.556Z,65.30
2023-12-30T12:33:58.909Z,68.43
2023-12-30T12:36:26.229Z,70.70
2023-12-30T12:38:53.365Z,73.63
2023-12-30T12:41:20.366Z,69.57
2023-12-30T12:43:47.796Z,73.20
2023-12-30T12:46:15.699Z,67.63
2023-12-30T12:48:42.891Z,69.37
2023-12-30T12:51:09.953Z,71.10
2023-12-30T12:53:37.304Z,71.00
2023-12-30T12:56:05.846Z,71.13
2023-12-30T12:58:34.105Z,74.97
2023-12-30T13:01:01.322Z,68.53
2023-12-30T13:03:28.672Z,77.93
2023-12-30T13:05:55.976Z,70.17
2023-12-30T13:08:26.234Z,71.80
2023-12-30T13:10:53.505Z,72.00
2023-12-30T13:13:20.910Z,66.77
2023-12-30T13:15:48.057Z,73.53
2023-12-30T13:18:20.071Z,70.77
2023-12-30T13:20:47.647Z,70.37
2023-12-30T13:23:16.922Z,72.00
2023-12-30T13:25:44.419Z,71.43
2023-12-30T13:28:12.645Z,67.20
2023-12-30T13:30:41.611Z,66.23
2023-12-30T13:33:11.843Z,69.27
2023-12-30T13:35:40.253Z,59.33
2023-12-30T13:38:11.168Z,60.00
2023-12-30T13:40:38.289Z,61.20
2023-12-30T13:43:10.429Z,60.70
2023-12-30T13:45:43.166Z,64.57
2023-12-30T13:48:25.423Z,60.27
2023-12-30T13:50:56.709Z,66.03
2023-12-30T13:53:25.775Z,61.47
2023-12-30T13:55:59.623Z,64.33
2023-12-30T13:58:26.885Z,68.53
2023-12-30T14:00:56.579Z,65.07
2023-12-30T14:03:26.695Z,61.43
2023-12-30T14:05:53.952Z,62.20
2023-12-30T14:08:31.944Z,66.60
2023-12-30T14:11:03.968Z,62.37
2023-12-30T14:13:31.547Z,56.20
2023-12-30T14:15:58.854Z,66.73
2023-12-30T14:18:26.260Z,64.47
2023-12-30T14:20:53.379Z,65.80
2023-12-30T14:23:20.397Z,63.97
2023-12-30T14:25:47.572Z,63.57
2023-12-30T14:28:15.170Z,62.40
2023-12-30T14:30:42.463Z,62.93
2023-12-30T14:33:10.191Z,58.87
2023-12-30T14:35:37.502Z,59.97
2023-12-30T14:38:06.029Z,59.57
2023-12-30T14:40:33.260Z,67.33
2023-12-30T14:43:00.709Z,60.93
2023-12-30T14:45:27.914Z,57.97
2023-12-30T14:47:55.045Z,59.33
2023-12-30T14:50:22.203Z,64.83
2023-12-30T14:52:49.363Z,66.80
2023-12-30T14:55:18.305Z,64.23
2023-12-30T14:57:46.892Z,66.67
2023-12-30T15:00:15.458Z,75.20
2023-12-30T15:02:44.308Z,70.37
2023-12-30T15:05:14.835Z,61.33
2023-12-30T15:07:43.717Z,61.17
2023-12-30T15:10:12.251Z,62.50
2023-12-30T15:12:40.775Z,63.03
2023-12-30T15:15:09.261Z,62.67
2023-12-30T15:17:36.565Z,69.27
2023-12-30T15:20:07.304Z,60.87
2023-12-30T15:22:36.126Z,59.10
2023-12-30T15:25:03.326Z,59.70
2023-12-30T15:27:31.092Z,63.67
2023-12-30T15:29:58.145Z,64.80
2023-12-30T15:32:25.328Z,63.73
2023-12-30T15:34:52.546Z,64.17
2023-12-30T15:37:19.628Z,62.40
2023-12-30T15:39:46.649Z,60.97
2023-12-30T15:42:13.934Z,61.43
2023-12-30T15:44:41.205Z,64.73
2023-12-30T15:47:11.025Z,57.40
2023-12-30T15:49:41.304Z,65.53
2023-12-30T15:52:10.924Z,61.30
2023-12-30T15:54:41.144Z,67.53
2023-12-30T15:57:08.164Z,61.63
2023-12-30T15:59:35.908Z,65.10
2023-12-30T16:02:03.560Z,63.47
2023-12-30T16:04:30.709Z,57.07
2023-12-30T16:06:58.050Z,65.93
2023-12-30T16:09:25.475Z,64.07
2023-12-30T16:11:52.611Z,65.80
2023-12-30T16:14:19.688Z,64.87
2023-12-30T16:16:47.258Z,65.13
2023-12-30T16:19:16.985Z,71.63
2023-12-30T16:21:46.442Z,68.77
2023-12-30T16:24:14.730Z,74.60
2023-12-30T16:26:42.412Z,69.67
2023-12-30T16:29:09.971Z,70.93
2023-12-30T16:31:37.941Z,69.07
2023-12-30T16:34:05.621Z,68.30
2023-12-30T16:36:34.391Z,72.77
2023-12-30T16:39:02.383Z,64.40
2023-12-30T16:41:29.505Z,68.40
2023-12-30T16:43:58.800Z,68.73
2023-12-30T16:46:26.355Z,69.20
2023-12-30T16:48:54.733Z,64.80
2023-12-30T16:51:22.117Z,69.07
2023-12-30T16:53:49.447Z,61.70
2023-12-30T16:56:16.942Z,64.20
2023-12-30T16:58:44.112Z,68.90
2023-12-30T17:01:11.268Z,65.20
2023-12-30T17:03:38.575Z,65.27
2023-12-30T17:06:06.054Z,71.37
2023-12-30T17:08:33.164Z,77.17
2023-12-30T17:11:00.440Z,73.63
2023-12-30T17:13:35.044Z,76.57
2023-12-30T17:16:07.386Z,66.00
2023-12-30T17:18:34.649Z,72.07
2023-12-30T17:21:01.741Z,75.20
2023-12-30T17:23:28.780Z,73.50
2023-12-30T17:25:55.919Z,73.30
2023-12-30T17:28:22.976Z,73.07
2023-12-30T17:30:50.795Z,85.70
2023-12-30T17:33:18.035Z,77.83
2023-12-30T17:35:45.186Z,73.47
2023-12-30T17:38:12.273Z,77.53
2023-12-30T17:40:39.341Z,70.33
2023-12-30T17:43:06.756Z,68.00
2023-12-30T17:45:33.936Z,71.90
2023-12-30T17:48:01.132Z,71.77
2023-12-30T17:50:29.731Z,77.23
2023-12-30T17:52:56.775Z,71.30
2023-12-30T17:55:23.930Z,69.73
2023-12-30T17:57:51.256Z,74.80
2023-12-30T18:00:18.689Z,75.27
2023-12-30T18:02:45.902Z,68.47
2023-12-30T18:05:13.230Z,74.20
2023-12-30T18:07:40.527Z,76.93
2023-12-30T18:10:07.677Z,65.80
2023-12-30T18:12:34.820Z,67.37
2023-12-30T18:15:04.685Z,76.40
2023-12-30T18:17:32.992Z,78.90
2023-12-30T18:20:00.377Z,76.70
2023-12-30T18:22:27.861Z,69.27
2023-12-30T18:24:54.944Z,64.23
2023-12-30T18:27:23.803Z,72.80
2023-12-30T18:29:50.820Z,73.67
2023-12-30T18:32:17.883Z,68.97
2023-12-30T18:34:45.051Z,79.07
2023-12-30T18:37:15.352Z,67.07
2023-12-30T18:39:42.890Z,62.53
2023-12-30T18:42:10.237Z,64.33
2023-12-30T18:44:37.365Z,65.10
2023-12-30T18:47:04.553Z,72.63
2023-12-30T18:49:31.761Z,73.50
2023-12-30T18:51:58.779Z,76.80
2023-12-30T18:54:25.793Z,77.33
2023-12-30T18:56:52.861Z,72.50
2023-12-30T18:59:20.091Z,70.67
2023-12-30T19:01:47.231Z,83.77
2023-12-30T19:04:14.723Z,75.30
2023-12-30T19:06:41.831Z,69.10
2023-12-30T19:09:10.083Z,66.67
2023-12-30T19:11:37.147Z,55.80
2023-12-30T19:14:04.270Z,63.53
2023-12-30T19:16:31.585Z,60.17
2023-12-30T19:18:59.135Z,62.63
2023-12-30T19:21:26.334Z,66.53
2023-12-30T19:23:53.576Z,70.17
2023-12-30T19:26:20.855Z,70.57
2023-12-30T19:28:47.909Z,67.17
2023-12-30T19:31:15.093Z,66.63
2023-12-30T19:33:43.234Z,70.53
2023-12-30T19:36:11.746Z,68.73
2023-12-30T19:38:39.309Z,62.33
2023-12-30T19:41:06.365Z,71.10
2023-12-30T19:43:35.581Z,68.43
2023-12-30T19:46:07.163Z,73.13
2023-12-30T19:48:35.558Z,78.43
2023-12-30T19:51:05.082Z,68.00
2023-12-30T19:53:33.380Z,66.60
2023-12-30T19:56:02.039Z,68.67
2023-12-30T19:58:32.570Z,74.57
2023-12-30T20:00:59.922Z,71.30
2023-12-30T20:03:27.228Z,75.20
2023-12-30T20:05:54.815Z,68.67
2023-12-30T20:08:22.299Z,69.13
2023-12-30T20:10:49.790Z,77.57
2023-12-30T20:13:17.068Z,66.07
2023-12-30T20:15:44.177Z,76.57
2023-12-30T20:18:11.510Z,67.47
2023-12-30T20:20:38.776Z,71.00
2023-12-30T20:23:06.577Z,68.17
2023-12-30T20:25:34.047Z,65.13
2023-12-30T20:28:01.589Z,69.63
2023-12-30T20:30:28.952Z,73.30
2023-12-30T20:32:56.196Z,77.97
2023-12-30T20:35:23.423Z,71.50
2023-12-30T20:37:50.608Z,79.83
2023-12-30T20:40:18.955Z,69.30
2023-12-30T20:42:46.166Z,77.47
2023-12-30T20:45:15.364Z,71.57
2023-12-30T20:47:42.611Z,77.03
2023-12-30T20:50:10.046Z,67.73
2023-12-30T20:52:39.112Z,71.77
2023-12-30T20:55:07.702Z,68.30
2023-12-30T20:57:34.862Z,76.30
2023-12-30T21:00:01.979Z,80.77
2023-12-30T21:02:29.506Z,81.67
2023-12-30T21:04:58.078Z,71.33
2023-12-30T21:07:25.359Z,76.83
2023-12-30T21:09:52.444Z,66.27
2023-12-30T21:12:19.537Z,67.20
2023-12-30T21:14:46.582Z,73.67
2023-12-30T21:17:13.840Z,81.83
2023-12-30T21:19:41.553Z,74.33
2023-12-30T21:22:09.410Z,72.90
2023-12-30T21:24:40.335Z,69.93
2023-12-30T21:27:07.503Z,74.63
2023-12-30T21:29:37.756Z,64.87
2023-12-30T21:32:05.769Z,74.20
2023-12-30T21:34:32.924Z,80.67
2023-12-30T21:36:59.964Z,71.60
2023-12-30T21:39:27.173Z,75.87
2023-12-30T21:41:54.263Z,72.07
2023-12-30T21:44:21.638Z,66.77
2023-12-30T21:46:48.795Z,66.17
2023-12-30T21:49:16.832Z,69.40
2023-12-30T21:51:44.908Z,70.57
2023-12-30T21:54:13.558Z,68.53
2023-12-30T21:56:41.229Z,70.40
2023-12-30T21:59:08.721Z,74.37
2023-12-30T22:01:37.357Z,77.67
2023-12-30T22:04:05.617Z,72.53
2023-12-30T22:06:33.324Z,76.90
2023-12-30T22:09:00.408Z,68.20
2023-12-30T22:11:28.814Z,70.60
2023-12-30T22:13:56.839Z,65.93
2023-12-30T22:16:24.203Z,67.90
2023-12-30T22:18:51.471Z,65.03
2023-12-30T22:21:19.277Z,63.53
2023-12-30T22:23:48.132Z,73.83
2023-12-30T22:26:20.572Z,66.40
2023-12-30T22:28:48.067Z,80.30
2023-12-30T22:31:15.292Z,70.00
2023-12-30T22:33:43.129Z,75.73
2023-12-30T22:36:10.305Z,86.63
2023-12-30T22:38:38.288Z,77.33
2023-12-30T22:41:05.315Z,73.67
2023-12-30T22:43:32.427Z,78.10
2023-12-30T22:45:59.487Z,78.73
2023-12-30T22:48:26.509Z,73.80
2023-12-30T22:50:53.642Z,81.13
2023-12-30T22:53:20.719Z,72.83
2023-12-30T22:55:47.839Z,75.83
2023-12-30T22:58:14.955Z,73.80
2023-12-30T23:00:42.040Z,69.77
2023-12-30T23:03:09.406Z,66.37
2023-12-30T23:05:36.659Z,75.40
2023-12-30T23:08:03.869Z,72.73
2023-12-30T23:10:31.082Z,70.83
2023-12-30T23:12:58.097Z,83.57
2023-12-30T23:15:25.145Z,79.47
2023-12-30T23:17:52.550Z,80.90
2023-12-30T23:20:22.474Z,75.37
2023-12-30T23:22:49.789Z,78.93
2023-12-30T23:25:17.104Z,78.70
2023-12-30T23:27:45.087Z,76.40
2023-12-30T23:30:13.178Z,73.90
2023-12-30T23:32:40.264Z,80.77
2023-12-30T23:35:07.948Z,75.17
2023-12-30T23:37:35.147Z,79.57
2023-12-30T23:40:02.500Z,76.23
2023-12-30T23:42:29.608Z,80.73
2023-12-30T23:44:56.660Z,73.33
2023-12-30T23:47:23.756Z,79.80
2023-12-30T23:49:50.792Z,80.17
2023-12-30T23:52:18.520Z,71.63
2023-12-30T23:54:45.738Z,69.53
2023-12-30T23:57:12.815Z,70.30
2023-12-30T23:59:42.560Z,78.27
